Terminal Aerodrome Forecast
Issued by NWS

Home | Current Version | Previous Version | Text Only | Print | Product List | Glossary On
Versions: 1 2 3 4 5 6 7 8 9 10 11 12 13 14 15 16 17 18 19 20 21 22 23
000
FTUS44 KMAF 190500
TAFFST
TAF
KFST 190522Z 1906/2006 15012G22KT P6SM OVC130
     FM191600 14012G22KT P6SM SCT035 OVC120
      TEMPO 1916/1920 -SHRA
     FM200100 14012KT P6SM OVC120=

USA.gov is the U.S. government's official web portal to all federal, state and local government web resources and services.